EDDGEHBK

Guest
Details From EDDG - Muenster Osnabrueck
To EHBK - Maastricht
Flight Number -
Tags Generated
Created
Modified
Stats Distance 103 nm / 190 km
Max Altitude 0 ft / 0 m
Waypoints 2
Social Downloads 0
Likes 0
Share VATSIM

Download

Looking for another format? Having issues loading an existing format? Contact us
Advertisement - Login to hide

Notes

Generated

Route

EDDG EHBK

ID Type Via Altitude Latitude Longitude Leg Dist Tot Dist Heading (true) Name
O EDDG APT - 0 ft / 0 m 52.13151˚ 7.67006˚ - 0 nm - -
O EHBK APT - 0 ft / 0 m 50.90184˚ 5.76005˚ 102 nm 102 nm 225° / 223° -

Altitude Profile

Advertisement - Login to hide

EDDG

Details ICAO EDDG (FMO)
Name Muenster Osnabrueck
Region Germany - Civil
Timezone Europe/Berlin (UTC+1.0)
Stats Elevation 159 ft / 48 m (AMSL)
Location 52.134580° 7.684669°
Runways 1
Magnetic Variation 2.069° E

METAR

EDDG 170820Z 17003KT 140V200 9999 SCT042 M01/M01 Q1021 NOSIG

Decode

TAF

TAF EDDG 170500Z 1706/1806 24006KT 9999 SCT030 TEMPO 1706/1708 BKN007 BECMG 1717/1720 18008KT TEMPO 1722/1802 4000 -RASN BKN012 BECMG 1802/1804 4000 -RADZ BKN007 PROB40 TEMPO 1803/1806 2000 RADZ BKN003

Decode

Departure Runways

ID Width Length Bearing (true) Bearing (mag) Surface Threshold Offset Overrun Length
07 148 ft / 45 m 7,303 ft / 2,226 m 70.93° 68.86° Asphalt 151 ft / 46 m 0 ft / 0 m
25 148 ft / 45 m 7,303 ft / 2,226 m 250.96° 248.89° Asphalt 292 ft / 89 m 0 ft / 0 m

EHBK

Details ICAO EHBK (MST)
Name Maastricht
Region Netherlands
Timezone Europe/Amsterdam (UTC+1.0)
Stats Elevation 375 ft / 114 m (AMSL)
Location 50.911305° 5.769639°
Runways 1
Magnetic Variation 1.517° E

METAR

EHBK 170755Z AUTO 25006KT 210V290 5000 BR OVC003 01/01 Q1022 BECMG 4000

Decode

TAF

TAF EHBK 170520Z 1706/1812 25007KT 5000 BR BKN005 PROB40 TEMPO 1706/1709 1200 BKN001 BECMG 1709/1711 9999 NSW SCT015 BECMG 1722/1724 20017G27KT 7000 -RADZ BKN012 TEMPO 1800/1805 4500 RADZ BKN006 PROB30 TEMPO 1802/1805 1200 DZ BKN001 BECMG 1805/1807 30010KT 3500 BR -DZRA BKN004 BECMG 1808/1810 9999 NSW SCT018

Decode

Destination Runways

ID Width Length Bearing (true) Bearing (mag) Surface Threshold Offset Overrun Length
03 148 ft / 45 m 8,200 ft / 2,499 m 32.55° 31.03° Asphalt 820 ft / 250 m 0 ft / 0 m
21 148 ft / 45 m 8,200 ft / 2,499 m 212.56° 211.04° Asphalt 820 ft / 250 m 0 ft / 0 m

Approach Navaids

Runway Type Ident Frequency Range Bearing (true) Bearing (mag) Slope Elevation
03 Localiser BKZ 111.55 MHz 18 nm / 33 km 32.57° 31.05° - 375 ft / 114 m (AMSL)
03 Glidescope BKZ 111.55 MHz 15 nm / 28 km 32.57° 31.05° 3.00° 375 ft / 114 m (AMSL)
03 DME BKZ 111.55 MHz 18 nm / 33 km - - - 375 ft / 114 m (AMSL)
21 Localiser BKN 111.55 MHz 18 nm / 33 km 212.55° 211.03° - 375 ft / 114 m (AMSL)
21 Glidescope BKN 111.55 MHz 15 nm / 28 km 212.55° 211.03° 3.00° 375 ft / 114 m (AMSL)
21 DME BKN 111.55 MHz 18 nm / 33 km - - - 375 ft / 114 m (AMSL)